Details From KFSI - HENRY POST AAF
To KLHX - LA JUNTA MUNI
Flight Number -
Tags generated
Created
Modified
Stats Distance 327 nm / 606 km
Max Altitude 28,600 ft / 8,717 m
Waypoints 5
Social Downloads 0
Likes 0
Share VATSIM

Download

Looking for another format? Having issues loading an existing format? Contact us
Advertisement - Login to hide

Notes

Basic altitude profile: - Ascent Rate: 2500ft/min - Ascent Speed: 250kts - Cruise Altitude: 21000ft - Cruise Speed: 420kts - Descent Rate: 1500ft/min - Descent Speed: 250kts Options: - Use NATs: yes - Use PACOTS: yes - Use low airways: yes - Use high airways: yes

Route

KFSI ROLLS J20 DRAWL KLHX

ID Type Via Altitude Latitude Longitude Leg Dist Tot Dist Heading (true) Name
O KFSI APT - 0 ft / 0 m 34.64982˚ -98.40217˚ - 0 nm - HENRY POST AAF
ROLLS FIX - 28,600 ft / 8,717 m 35.72274˚ -99.47070˚ 83 nm 83 nm 321° / 321° -
LBL VOR J20 (AWY-HI) 28,200 ft / 8,595 m 37.04439˚ -100.97119˚ 107 nm 190 nm 318° / 317° LIBERAL VORTAC
DRAWL FIX J20 (AWY-HI) 20,500 ft / 6,248 m 37.48541˚ -101.61725˚ 40 nm 231 nm 311° / 310° -
O KLHX APT - 0 ft / 0 m 38.04986˚ -103.50925˚ 96 nm 327 nm 291° / 290° LA JUNTA MUNI

Altitude Profile

Advertisement - Login to hide

Weather


0- 5 10 15 20 25 30 35+ Temperature / ° C

Clouds and Precipitation
Forecast for 2018-05-22 06:00 UTC. Updated 3 hours ago

Ground ~20,000 ft ~40,000 ft Winds

KFSI

Details ICAO KFSI (FSI)
Name HENRY POST AAF
Region United States
Timezone America/Chicago (UTC-5.0)
Stats Elevation 1,188 ft / 362 m (AMSL)
Location 34.649821° -98.402175°
Runways 1
Magnetic Variation 4.214° E

METAR

KFSI 220756Z AUTO 00000KT 10SM CLR 19/19 A2997 RMK AO2 SLP142 T01920192

Decode

TAF

Not found

Departure Runways

ID Width Length Bearing (true) Bearing (mag) Surface Threshold Offset Overrun Length
17 150 ft / 46 m 5,015 ft / 1,528 m 180.13° 175.92° Concrete 0 ft / 0 m 0 ft / 0 m
35 150 ft / 46 m 5,015 ft / 1,528 m 0.13° 355.92° Concrete 0 ft / 0 m 0 ft / 0 m

KLHX

Details ICAO KLHX (LHX)
Name LA JUNTA MUNI
Region United States
Timezone America/Denver (UTC-6.0)
Stats Elevation 4,238 ft / 1,292 m (AMSL)
Location 38.049862° -103.509245°
Runways 2
Magnetic Variation 7.259° E

METAR

KLHX 220753Z AUTO 23008KT 10SM CLR 16/09 A2995 RMK AO2 SLP084 T01560089 $

Decode

TAF

Not found

Destination Runways

ID Width Length Bearing (true) Bearing (mag) Surface Threshold Offset Overrun Length
08 75 ft / 23 m 6,834 ft / 2,083 m 89.80° 82.54° Asphalt 0 ft / 0 m 0 ft / 0 m
12 60 ft / 18 m 5,800 ft / 1,768 m 135.34° 128.08° Asphalt 0 ft / 0 m 0 ft / 0 m
26 75 ft / 23 m 6,834 ft / 2,083 m 269.81° 262.55° Asphalt 0 ft / 0 m 0 ft / 0 m
30 60 ft / 18 m 5,800 ft / 1,768 m 315.35° 308.09° Asphalt 0 ft / 0 m 0 ft / 0 m